createdAt,value
2022-09-13T00:01:18.961Z,101058.94
2022-09-13T00:03:47.681Z,101048.59
2022-09-13T00:06:19.836Z,101050.34
2022-09-13T00:08:49.175Z,101073.00
2022-09-13T00:11:21.957Z,101046.66
2022-09-13T00:13:50.529Z,101060.78
2022-09-13T00:16:21.865Z,101060.88
2022-09-13T00:18:50.557Z,100996.06
2022-09-13T00:21:22.024Z,101014.41
2022-09-13T00:23:52.866Z,101036.19
2022-09-13T00:26:24.941Z,101043.25
2022-09-13T00:28:55.057Z,101039.75
2022-09-13T00:31:25.380Z,101036.31
2022-09-13T00:33:54.697Z,101046.72
2022-09-13T00:36:23.322Z,101031.88
2022-09-13T00:38:51.744Z,101038.84
2022-09-13T00:41:23.154Z,101015.13
2022-09-13T00:43:55.025Z,101007.25
2022-09-13T00:46:33.709Z,101022.13
2022-09-13T00:49:10.530Z,101029.94
2022-09-13T00:51:40.007Z,101029.09
2022-09-13T00:54:08.625Z,101029.94
2022-09-13T00:56:44.827Z,101017.00
2022-09-13T00:59:20.591Z,101017.03
2022-09-13T01:01:54.330Z,101023.25
2022-09-13T01:04:27.289Z,101045.97
2022-09-13T01:07:05.361Z,101037.28
2022-09-13T01:09:36.937Z,101050.28
2022-09-13T01:12:16.121Z,100994.47
2022-09-13T01:14:46.763Z,101051.38
2022-09-13T01:17:15.590Z,101035.47
2022-09-13T01:19:44.006Z,101039.78
2022-09-13T01:23:02.775Z,101031.94
2022-09-13T01:26:25.823Z,101044.00
2022-09-13T01:29:54.924Z,101041.38
2022-09-13T01:32:33.722Z,101037.03
2022-09-13T01:35:18.545Z,100996.03
2022-09-13T01:37:54.698Z,100985.31
2022-09-13T01:40:44.040Z,101020.28
2022-09-13T01:43:36.117Z,101031.53
2022-09-13T01:46:07.903Z,100986.88
2022-09-13T01:48:53.940Z,100997.72
2022-09-13T01:51:30.279Z,101024.75
2022-09-13T01:54:14.385Z,100993.13
2022-09-13T01:56:55.376Z,101006.78
2022-09-13T01:59:34.544Z,101010.97
2022-09-13T02:02:08.240Z,101009.25
2022-09-13T02:04:42.834Z,100981.13
2022-09-13T02:07:15.433Z,101007.31
2022-09-13T02:09:48.272Z,100991.63
2022-09-13T02:12:21.082Z,101012.47
2022-09-13T02:14:55.909Z,101009.03
2022-09-13T02:17:29.689Z,101019.53
2022-09-13T02:20:02.650Z,101015.94
2022-09-13T02:22:35.934Z,100996.84
2022-09-13T02:25:11.184Z,101006.63
2022-09-13T02:27:43.017Z,101002.28
2022-09-13T02:30:14.734Z,101006.63
2022-09-13T02:32:49.459Z,101033.75
2022-09-13T02:35:25.900Z,101033.75
2022-09-13T02:38:03.901Z,101034.69
2022-09-13T02:40:41.221Z,101035.81
2022-09-13T02:43:16.672Z,101006.69
2022-09-13T02:45:52.491Z,101025.09
2022-09-13T02:48:32.426Z,101034.69
2022-09-13T02:51:12.193Z,101033.91
2022-09-13T02:53:50.022Z,101046.44
2022-09-13T02:56:30.415Z,101025.38
2022-09-13T02:59:07.020Z,101035.72
2022-09-13T03:01:36.779Z,101046.25
2022-09-13T03:04:05.220Z,101039.97
2022-09-13T03:06:35.135Z,101040.06
2022-09-13T03:09:07.518Z,101051.66
2022-09-13T03:11:57.457Z,101040.88
2022-09-13T03:14:48.095Z,101045.16
2022-09-13T03:17:42.496Z,101036.41
2022-09-13T03:20:18.544Z,101038.31
2022-09-13T03:23:32.376Z,101031.19
2022-09-13T03:26:36.550Z,101025.72
2022-09-13T03:29:25.232Z,101029.47
2022-09-13T03:32:09.866Z,101003.13
2022-09-13T03:34:50.365Z,101015.38
2022-09-13T03:37:29.400Z,101026.81
2022-09-13T03:40:04.890Z,101031.31
2022-09-13T03:42:41.054Z,101026.84
2022-09-13T03:45:12.913Z,101026.72
2022-09-13T03:47:44.631Z,101040.06
2022-09-13T03:50:20.252Z,101045.53
2022-09-13T03:52:56.437Z,101022.06
2022-09-13T03:55:26.488Z,101042.19
2022-09-13T03:57:54.834Z,101057.25
2022-09-13T04:00:23.956Z,101055.53
2022-09-13T04:02:52.252Z,101054.84
2022-09-13T04:05:20.633Z,101044.59
2022-09-13T04:07:49.017Z,101056.84
2022-09-13T04:10:17.367Z,101068.44
2022-09-13T04:12:47.091Z,101021.81
2022-09-13T04:15:16.214Z,101063.16
2022-09-13T04:17:44.590Z,101065.00
2022-09-13T04:20:12.946Z,101027.31
2022-09-13T04:22:42.209Z,101070.31
2022-09-13T04:25:11.129Z,101056.19
2022-09-13T04:27:39.418Z,101050.03
2022-09-13T04:30:11.913Z,101058.81
2022-09-13T04:32:40.224Z,101047.22
2022-09-13T04:35:09.406Z,101040.31
2022-09-13T04:37:38.542Z,101066.66
2022-09-13T04:40:09.161Z,101071.13
2022-09-13T04:42:37.832Z,101050.97
2022-09-13T04:45:09.316Z,101043.19
2022-09-13T04:47:38.063Z,101063.06
2022-09-13T04:50:07.506Z,101069.28
2022-09-13T04:52:35.997Z,101070.31
2022-09-13T04:55:04.498Z,101072.88
2022-09-13T04:57:32.715Z,101061.47
2022-09-13T05:00:00.953Z,101066.03
2022-09-13T05:02:30.666Z,101079.34
2022-09-13T05:04:59.152Z,101062.78
2022-09-13T05:07:27.648Z,101084.84
2022-09-13T05:09:55.951Z,101082.25
2022-09-13T05:12:24.232Z,101082.31
2022-09-13T05:14:52.581Z,101080.59
2022-09-13T05:17:21.764Z,101062.19
2022-09-13T05:19:51.688Z,101093.78
2022-09-13T05:22:19.985Z,101089.34
2022-09-13T05:24:48.297Z,101091.97
2022-09-13T05:27:16.579Z,101048.97
2022-09-13T05:29:44.888Z,101058.47
2022-09-13T05:32:13.148Z,101091.72
2022-09-13T05:34:41.446Z,101092.56
2022-09-13T05:37:11.158Z,101090.81
2022-09-13T05:40:00.652Z,101071.50
2022-09-13T05:42:27.759Z,101032.03
2022-09-13T05:44:57.537Z,101096.72
2022-09-13T05:47:26.077Z,101097.59
2022-09-13T05:50:11.799Z,101089.56
2022-09-13T05:52:44.326Z,101086.00
2022-09-13T05:55:12.638Z,101089.28
2022-09-13T05:57:40.981Z,101084.91
2022-09-13T06:00:11.640Z,101090.81
2022-09-13T06:02:43.629Z,101088.88
2022-09-13T06:05:12.660Z,101094.06
2022-09-13T06:07:43.663Z,101054.69
2022-09-13T06:10:13.348Z,101079.78
2022-09-13T06:12:41.921Z,101070.78
2022-09-13T06:15:11.524Z,101042.69
2022-09-13T06:17:39.803Z,101082.63
2022-09-13T06:20:10.642Z,101068.41
2022-09-13T06:22:39.197Z,101092.78
2022-09-13T06:25:10.806Z,101049.63
2022-09-13T06:27:39.085Z,101064.34
2022-09-13T06:30:12.048Z,101070.31
2022-09-13T06:32:40.976Z,101036.13
2022-09-13T06:35:10.360Z,101048.41
2022-09-13T06:37:39.045Z,101089.53
2022-09-13T06:40:09.940Z,101091.25
2022-09-13T06:42:38.429Z,101089.47
2022-09-13T06:45:08.350Z,101091.22
2022-09-13T06:47:36.868Z,101092.09
2022-09-13T06:50:05.763Z,101087.56
2022-09-13T06:52:34.096Z,101085.03
2022-09-13T06:55:02.433Z,101082.56
2022-09-13T06:57:33.153Z,101099.03
2022-09-13T07:00:01.584Z,101076.00
2022-09-13T07:02:29.989Z,101094.09
2022-09-13T07:04:58.240Z,101086.72
2022-09-13T07:07:26.542Z,101099.94
2022-09-13T07:09:55.106Z,101085.88
2022-09-13T07:12:23.366Z,101106.97
2022-09-13T07:14:53.693Z,101080.34
2022-09-13T07:17:21.978Z,101067.91
2022-09-13T07:19:50.281Z,101112.00
2022-09-13T07:22:18.606Z,101090.44
2022-09-13T07:24:47.023Z,101105.31
2022-09-13T07:27:16.803Z,101097.91
2022-09-13T07:29:45.149Z,101103.66
2022-09-13T07:32:14.931Z,101070.09
2022-09-13T07:34:43.136Z,101124.50
2022-09-13T07:37:11.701Z,101116.13
2022-09-13T07:39:40.123Z,101085.19
2022-09-13T07:42:08.562Z,101134.69
2022-09-13T07:44:36.859Z,101132.41
2022-09-13T07:47:05.602Z,101110.03
2022-09-13T07:49:35.295Z,101140.84
2022-09-13T07:52:03.845Z,101093.00
2022-09-13T07:54:32.080Z,101067.66
2022-09-13T07:57:01.041Z,101098.28
2022-09-13T07:59:30.271Z,101093.28
2022-09-13T08:01:58.927Z,101133.03
2022-09-13T08:04:27.667Z,101096.72
2022-09-13T08:06:57.386Z,101123.53
2022-09-13T08:09:25.853Z,101132.66
2022-09-13T08:11:54.616Z,101085.94
2022-09-13T08:14:24.448Z,101118.84
2022-09-13T08:16:55.930Z,101106.63
2022-09-13T08:19:24.335Z,101123.13
2022-09-13T08:21:52.623Z,101098.22
2022-09-13T08:24:23.753Z,101126.72
2022-09-13T08:26:52.858Z,101134.34
2022-09-13T08:29:21.333Z,101129.47
2022-09-13T08:31:49.587Z,101140.63
2022-09-13T08:34:18.459Z,101118.16
2022-09-13T08:36:46.854Z,101141.25
2022-09-13T08:39:15.388Z,101130.88
2022-09-13T08:42:12.769Z,101142.00
2022-09-13T08:44:47.098Z,101141.31
2022-09-13T08:47:42.959Z,101137.47
2022-09-13T08:50:20.403Z,101122.31
2022-09-13T08:53:09.892Z,101114.38
2022-09-13T08:55:50.549Z,101112.19
2022-09-13T08:58:46.433Z,101096.59
2022-09-13T09:01:31.646Z,101136.88
2022-09-13T09:04:08.358Z,101125.16
2022-09-13T09:06:37.681Z,101112.69
2022-09-13T09:09:09.468Z,101098.69
2022-09-13T09:11:43.817Z,101086.63
2022-09-13T09:14:26.031Z,101105.69
2022-09-13T09:16:59.623Z,101095.09
2022-09-13T09:19:35.287Z,101097.75
2022-09-13T09:22:07.768Z,101091.53
2022-09-13T09:24:38.801Z,101097.44
2022-09-13T09:27:16.542Z,101099.34
2022-09-13T09:29:48.723Z,101102.84
2022-09-13T09:32:37.218Z,101098.34
2022-09-13T09:35:16.304Z,101096.38
2022-09-13T09:37:55.518Z,101091.03
2022-09-13T09:40:26.443Z,101032.88
2022-09-13T09:42:56.886Z,101093.09
2022-09-13T09:45:29.741Z,101099.63
2022-09-13T09:48:06.694Z,101071.91
2022-09-13T09:50:40.594Z,101091.88
2022-09-13T09:53:14.769Z,101090.81
2022-09-13T09:55:48.678Z,101099.41
2022-09-13T09:58:18.985Z,101063.69
2022-09-13T10:00:57.441Z,101074.38
2022-09-13T10:03:29.159Z,101068.97
2022-09-13T10:06:09.578Z,101072.50
2022-09-13T10:08:41.241Z,101069.69
2022-09-13T10:11:10.772Z,101086.13
2022-09-13T10:13:39.375Z,101073.38
2022-09-13T10:16:26.632Z,101064.34
2022-09-13T10:18:55.659Z,101062.72
2022-09-13T10:21:26.444Z,100991.41
2022-09-13T10:24:19.257Z,101047.28
2022-09-13T10:26:47.694Z,101076.75
2022-09-13T10:29:18.777Z,101048.41
2022-09-13T10:31:54.023Z,101070.09
2022-09-13T10:34:25.818Z,101082.28
2022-09-13T10:36:59.177Z,101059.88
2022-09-13T10:39:31.055Z,101055.84
2022-09-13T10:42:05.418Z,101053.94
2022-09-13T10:44:41.214Z,101074.88
2022-09-13T10:47:20.861Z,101072.63
2022-09-13T10:49:52.872Z,101072.47
2022-09-13T10:52:34.961Z,101061.94
2022-09-13T10:55:39.068Z,101041.41
2022-09-13T10:58:20.141Z,101063.00
2022-09-13T11:01:28.486Z,101010.75
2022-09-13T11:04:56.617Z,101061.19
2022-09-13T11:07:47.305Z,101038.06
2022-09-13T11:10:26.356Z,101059.69
2022-09-13T11:13:03.725Z,101052.94
2022-09-13T11:15:50.896Z,101056.66
2022-09-13T11:18:56.133Z,101037.81
2022-09-13T11:21:43.885Z,101027.31
2022-09-13T11:24:29.270Z,101032.63
2022-09-13T11:27:10.376Z,101030.47
2022-09-13T11:30:12.427Z,101037.16
2022-09-13T11:33:07.843Z,101030.31
2022-09-13T11:35:56.368Z,101046.97
2022-09-13T11:38:50.757Z,101046.50
2022-09-13T11:41:31.675Z,101003.66
2022-09-13T11:44:29.846Z,101042.19
2022-09-13T11:47:09.430Z,101024.69
2022-09-13T11:50:04.374Z,100990.31
2022-09-13T11:52:48.189Z,101039.00
2022-09-13T11:55:29.386Z,101033.81
2022-09-13T11:58:02.110Z,101043.72
2022-09-13T12:00:36.091Z,101043.03
2022-09-13T12:03:13.196Z,101016.63
2022-09-13T12:05:48.628Z,101002.66
2022-09-13T12:08:23.821Z,101013.75
2022-09-13T12:10:57.797Z,101001.09
2022-09-13T12:13:30.067Z,101007.31
2022-09-13T12:16:03.697Z,101028.97
2022-09-13T12:18:38.952Z,101022.00
2022-09-13T12:21:10.335Z,101017.88
2022-09-13T12:23:44.711Z,101028.31
2022-09-13T12:26:21.266Z,101022.88
2022-09-13T12:28:55.377Z,101000.91
2022-09-13T12:31:26.864Z,101003.94
2022-09-13T12:33:57.049Z,101008.75
2022-09-13T12:36:58.218Z,101002.81
2022-09-13T12:40:12.280Z,100985.13
2022-09-13T12:43:11.525Z,100999.75
2022-09-13T12:46:09.748Z,100997.88
2022-09-13T12:49:11.589Z,100971.97
2022-09-13T12:52:04.779Z,101008.66
2022-09-13T12:55:02.153Z,101014.38
2022-09-13T12:57:42.338Z,100977.53
2022-09-13T13:00:24.233Z,101028.88
2022-09-13T13:03:02.579Z,101008.47
2022-09-13T13:05:35.036Z,101021.19
2022-09-13T13:08:07.130Z,100996.00
2022-09-13T13:10:39.098Z,100992.16
2022-09-13T13:13:26.367Z,100994.50
2022-09-13T13:16:21.160Z,100993.28
2022-09-13T13:18:52.091Z,101015.78
2022-09-13T13:21:40.048Z,101007.50
2022-09-13T13:24:48.225Z,101015.94
2022-09-13T13:27:48.047Z,101017.09
2022-09-13T13:30:53.617Z,101006.53
2022-09-13T13:33:31.987Z,100987.63
2022-09-13T13:36:23.738Z,100991.00
2022-09-13T13:38:53.701Z,100999.78
2022-09-13T13:41:55.526Z,100985.88
2022-09-13T13:45:14.864Z,101010.97
2022-09-13T13:48:35.949Z,101009.31
2022-09-13T13:51:20.810Z,101010.78
2022-09-13T13:53:56.277Z,101000.78
2022-09-13T13:56:46.183Z,101016.94
2022-09-13T13:59:23.888Z,101004.75
2022-09-13T14:01:59.277Z,101004.25
2022-09-13T14:05:14.695Z,101008.22
2022-09-13T14:08:33.448Z,101022.53
2022-09-13T14:11:15.807Z,101013.41
2022-09-13T14:13:59.692Z,100986.41
2022-09-13T14:16:48.673Z,100999.47
2022-09-13T14:19:25.293Z,101022.66
2022-09-13T14:22:21.032Z,101006.47
2022-09-13T14:24:50.690Z,101007.63
2022-09-13T14:27:22.732Z,101010.41
2022-09-13T14:29:54.205Z,101026.94
2022-09-13T14:32:28.087Z,101017.47
2022-09-13T14:35:03.737Z,101011.31
2022-09-13T14:37:36.170Z,101026.38
2022-09-13T14:40:19.113Z,101021.56
2022-09-13T14:42:50.511Z,101024.78
2022-09-13T14:45:22.986Z,101000.84
2022-09-13T14:47:58.094Z,101030.66
2022-09-13T14:50:31.121Z,100996.81
2022-09-13T14:53:04.293Z,101012.00
2022-09-13T14:55:39.276Z,101005.28
2022-09-13T14:58:16.094Z,101011.66
2022-09-13T15:00:51.682Z,101006.59
2022-09-13T15:03:21.114Z,100988.44
2022-09-13T15:05:57.003Z,101017.34
2022-09-13T15:08:46.640Z,101016.59
2022-09-13T15:11:29.753Z,101015.69
2022-09-13T15:14:28.178Z,100990.28
2022-09-13T15:17:01.850Z,101001.84
2022-09-13T15:19:40.407Z,101001.44
2022-09-13T15:22:21.895Z,100986.22
2022-09-13T15:24:54.807Z,100989.50
2022-09-13T15:27:29.573Z,100955.88
2022-09-13T15:30:00.449Z,100998.53
2022-09-13T15:32:35.974Z,100979.00
2022-09-13T15:35:04.441Z,101001.22
2022-09-13T15:37:37.121Z,100995.63
2022-09-13T15:40:25.031Z,100984.88
2022-09-13T15:42:54.207Z,100989.91
2022-09-13T15:45:23.864Z,100967.72
2022-09-13T15:47:54.264Z,100971.88
2022-09-13T15:50:31.142Z,100992.38
2022-09-13T15:53:01.515Z,100980.50
2022-09-13T15:55:32.788Z,100971.28
2022-09-13T15:58:01.047Z,100994.59
2022-09-13T16:00:29.465Z,100995.78
2022-09-13T16:02:57.803Z,100985.84
2022-09-13T16:05:26.197Z,100995.88
2022-09-13T16:07:58.798Z,100996.47
2022-09-13T16:10:27.212Z,100993.59
2022-09-13T16:12:56.855Z,100991.88
2022-09-13T16:15:25.233Z,100990.91
2022-09-13T16:17:53.764Z,100983.22
2022-09-13T16:20:22.389Z,100991.03
2022-09-13T16:22:50.938Z,100964.13
2022-09-13T16:25:19.675Z,100987.47
2022-09-13T16:27:48.465Z,100954.13
2022-09-13T16:30:22.226Z,100977.47
2022-09-13T16:32:51.035Z,100953.41
2022-09-13T16:35:19.507Z,100987.56
2022-09-13T16:37:51.393Z,100958.25
2022-09-13T16:40:20.482Z,100970.47
2022-09-13T16:42:48.874Z,100969.66
2022-09-13T16:45:18.985Z,100950.06
2022-09-13T16:47:47.250Z,100981.03
2022-09-13T16:50:16.033Z,100978.09
2022-09-13T16:52:44.550Z,100960.56
2022-09-13T16:55:13.273Z,100976.84
2022-09-13T16:57:42.127Z,100961.56
2022-09-13T17:00:13.183Z,100967.88
2022-09-13T17:02:43.184Z,100955.06
2022-09-13T17:05:11.632Z,100949.44
2022-09-13T17:07:40.570Z,100955.09
2022-09-13T17:10:11.863Z,100967.56
2022-09-13T17:12:40.789Z,100968.91
2022-09-13T17:15:10.126Z,100987.44
2022-09-13T17:17:38.630Z,100983.38
2022-09-13T17:20:13.280Z,100965.75
2022-09-13T17:22:42.294Z,100948.13
2022-09-13T17:25:12.002Z,100967.28
2022-09-13T17:27:40.510Z,100968.13
2022-09-13T17:30:12.407Z,100962.59
2022-09-13T17:32:40.959Z,100985.41
2022-09-13T17:35:12.040Z,100964.72
2022-09-13T17:37:40.496Z,100983.09
2022-09-13T17:40:10.058Z,100982.38
2022-09-13T17:42:38.448Z,100978.22
2022-09-13T17:45:07.732Z,100934.03
2022-09-13T17:47:35.985Z,100976.78
2022-09-13T17:50:04.809Z,100960.97
2022-09-13T17:52:35.329Z,100974.41
2022-09-13T17:55:03.919Z,100986.25
2022-09-13T17:57:32.442Z,100939.81
2022-09-13T18:00:00.848Z,100968.84
2022-09-13T18:02:29.590Z,100975.06
2022-09-13T18:04:58.909Z,100977.09
2022-09-13T18:07:29.621Z,100972.97
2022-09-13T18:12:27.474Z,100980.75
2022-09-13T18:14:55.879Z,100997.09
2022-09-13T18:17:24.186Z,101002.78
2022-09-13T18:19:52.497Z,100991.66
2022-09-13T18:22:20.922Z,101004.09
2022-09-13T18:24:49.155Z,100968.25
2022-09-13T18:27:18.892Z,100977.16
2022-09-13T18:29:50.183Z,101012.53
2022-09-13T18:32:18.503Z,101015.25
2022-09-13T18:34:46.888Z,101010.97
2022-09-13T18:37:15.344Z,100996.16
2022-09-13T18:39:43.707Z,101018.00
2022-09-13T18:42:12.148Z,101015.41
2022-09-13T18:44:42.615Z,101011.97
2022-09-13T18:47:13.051Z,101013.75
2022-09-13T18:49:42.041Z,101027.41
2022-09-13T18:52:12.352Z,101031.91
2022-09-13T18:54:41.954Z,101033.56
2022-09-13T18:57:11.729Z,101041.72
2022-09-13T18:59:42.227Z,101015.47
2022-09-13T19:02:13.007Z,101040.03
2022-09-13T19:04:42.659Z,101044.50
2022-09-13T19:07:12.490Z,101045.38
2022-09-13T19:09:42.709Z,101047.16
2022-09-13T19:12:12.573Z,101033.34
2022-09-13T19:14:43.348Z,101055.47
2022-09-13T19:17:12.749Z,101065.22
2022-09-13T19:19:41.837Z,101071.41
2022-09-13T19:22:11.279Z,101085.78
2022-09-13T19:24:40.137Z,101059.34
2022-09-13T19:27:09.287Z,101088.53
2022-09-13T19:29:38.611Z,101090.53
2022-09-13T19:32:09.073Z,101094.34
2022-09-13T19:34:38.002Z,101093.66
2022-09-13T19:37:06.499Z,101064.81
2022-09-13T19:39:35.261Z,101098.16
2022-09-13T19:42:03.849Z,101105.38
2022-09-13T19:44:32.149Z,101100.19
2022-09-13T19:49:50.591Z,101099.44
2022-09-13T19:52:18.891Z,101103.69
2022-09-13T19:54:47.198Z,101100.16
2022-09-13T19:57:15.496Z,101106.38
2022-09-13T19:59:43.973Z,101067.13
2022-09-13T20:02:12.541Z,101108.47
2022-09-13T20:04:41.291Z,101113.72
2022-09-13T20:07:13.337Z,101114.72
2022-09-13T20:09:42.392Z,101121.88
2022-09-13T20:12:12.650Z,101114.22
2022-09-13T20:14:41.029Z,101085.28
2022-09-13T20:17:09.348Z,101088.91
2022-09-13T20:19:43.841Z,101109.03
2022-09-13T20:22:17.581Z,101100.34
2022-09-13T20:24:45.962Z,101113.63
2022-09-13T20:27:14.498Z,101111.88
2022-09-13T20:29:42.870Z,101103.81
2022-09-13T20:32:11.505Z,101083.56
2022-09-13T20:34:39.752Z,101105.53
2022-09-13T20:37:08.104Z,101101.25
2022-09-13T20:39:37.945Z,101090.69
2022-09-13T20:42:06.715Z,101104.91
2022-09-13T20:44:34.950Z,101095.22
2022-09-13T20:47:03.411Z,101082.06
2022-09-13T20:49:31.653Z,101057.47
2022-09-13T20:52:00.008Z,101082.69
2022-09-13T20:54:28.390Z,101067.88
2022-09-13T20:56:58.235Z,101067.03
2022-09-13T20:59:26.817Z,101079.25
2022-09-13T21:01:55.228Z,101079.19
2022-09-13T21:04:24.272Z,101085.25
2022-09-13T21:07:14.458Z,101083.44
2022-09-13T21:09:43.487Z,101095.81
2022-09-13T21:12:14.433Z,101090.53
2022-09-13T21:14:42.852Z,101093.16
2022-09-13T21:17:11.535Z,101064.09
2022-09-13T21:19:40.092Z,101085.19
2022-09-13T21:22:09.885Z,101079.97
2022-09-13T21:24:38.509Z,101080.94
2022-09-13T21:27:07.608Z,101083.47
2022-09-13T21:29:37.331Z,101040.44
2022-09-13T21:32:05.757Z,101038.81
2022-09-13T21:34:33.984Z,101073.78
2022-09-13T21:37:02.403Z,101058.03
2022-09-13T21:39:31.269Z,101078.19
2022-09-13T21:41:59.435Z,101075.53
2022-09-13T21:44:28.247Z,101069.38
2022-09-13T21:46:57.939Z,101081.78
2022-09-13T21:49:26.254Z,101079.97
2022-09-13T21:51:55.119Z,101074.69
2022-09-13T21:54:24.811Z,101081.63
2022-09-13T21:56:55.103Z,101058.81
2022-09-13T21:59:24.502Z,101067.59
2022-09-13T22:01:54.920Z,101072.78
2022-09-13T22:04:27.526Z,101062.38
2022-09-13T22:06:56.478Z,101079.78
2022-09-13T22:09:27.632Z,101049.06
2022-09-13T22:11:57.444Z,101053.47
2022-09-13T22:14:26.756Z,101066.59
2022-09-13T22:16:55.167Z,101054.28
2022-09-13T22:19:28.040Z,101062.25
2022-09-13T22:21:59.537Z,101066.66
2022-09-13T22:24:32.101Z,101069.31
2022-09-13T22:27:00.794Z,101066.63
2022-09-13T22:29:29.548Z,101066.66
2022-09-13T22:31:57.993Z,101064.91
2022-09-13T22:34:30.857Z,101061.38
2022-09-13T22:37:00.159Z,101063.94
2022-09-13T22:39:28.492Z,101056.88
2022-09-13T22:41:56.681Z,101064.84
2022-09-13T22:44:24.907Z,101063.06
2022-09-13T22:46:53.284Z,101064.84
2022-09-13T22:49:21.640Z,101057.84
2022-09-13T22:51:51.309Z,101053.53
2022-09-13T22:54:20.598Z,101053.44
2022-09-13T22:56:49.438Z,101052.63
2022-09-13T22:59:20.551Z,101051.84
2022-09-13T23:01:49.091Z,101050.94
2022-09-13T23:04:17.809Z,101051.84
2022-09-13T23:06:46.469Z,101039.53
2022-09-13T23:09:18.923Z,101045.75
2022-09-13T23:11:47.977Z,101044.03
2022-09-13T23:14:19.883Z,101033.56
2022-09-13T23:16:51.179Z,101009.78
2022-09-13T23:19:23.053Z,101024.88
2022-09-13T23:21:53.485Z,101034.50
2022-09-13T23:24:24.286Z,101009.13
2022-09-13T23:26:55.174Z,101033.72
2022-09-13T23:29:24.056Z,101038.91
2022-09-13T23:31:52.563Z,101041.63
2022-09-13T23:34:20.902Z,101039.75
2022-09-13T23:36:49.064Z,101046.84
2022-09-13T23:39:20.225Z,101024.94
2022-09-13T23:41:50.984Z,101039.75
2022-09-13T23:44:19.896Z,101004.59
2022-09-13T23:46:48.156Z,101029.19
2022-09-13T23:49:17.005Z,100990.69
2022-09-13T23:51:45.992Z,101023.19
2022-09-13T23:54:15.033Z,101000.44
2022-09-13T23:56:44.220Z,100996.88
2022-09-13T23:59:14.338Z,101018.69
